TimeCDT,TemperatureF,Dew PointF,Humidity,Sea Level PressureIn,VisibilityMPH,Wind Direction,Wind SpeedMPH,Gust SpeedMPH,PrecipitationIn,Events,Conditions,WindDirDegrees,DateUTC
12:13 AM,64.4,64.4,100,29.73,10.0,NNE,10.4,-,N/A,,Light Drizzle,30,2014-06-10 05:13:00
12:14 AM,64.4,64.4,100,29.74,10.0,NNE,11.5,-,N/A,,Light Drizzle,20,2014-06-10 05:14:00
12:29 AM,62.6,62.6,100,29.74,10.0,NNE,11.5,-,N/A,,Light Drizzle,20,2014-06-10 05:29:00
12:34 AM,62.6,62.6,100,29.74,10.0,NNE,10.4,-,N/A,,Light Drizzle,20,2014-06-10 05:34:00
12:38 AM,62.6,62.6,100,29.74,10.0,NNE,10.4,-,N/A,,Light Drizzle,30,2014-06-10 05:38:00
12:48 AM,62.6,62.6,100,29.74,10.0,NE,9.2,-,N/A,Rain,Light Rain,40,2014-06-10 05:48:00
12:53 AM,62.6,62.6,100,29.74,10.0,NE,9.2,-,N/A,Rain,Light Rain,40,2014-06-10 05:53:00
12:54 AM,62.6,62.6,100,29.74,10.0,NE,10.4,-,N/A,Rain,Light Rain,40,2014-06-10 05:54:00
12:58 AM,62.6,62.6,100,29.73,10.0,NE,9.2,-,0.00,Rain,Light Rain,40,2014-06-10 05:58:00
1:51 AM,62.6,62.6,100,29.74,10.0,NNE,8.1,-,N/A,,Mostly Cloudy,20,2014-06-10 06:51:00
1:55 AM,62.6,62.6,100,29.74,10.0,NNE,9.2,-,N/A,,Mostly Cloudy,20,2014-06-10 06:55:00
1:58 AM,62.6,62.6,100,29.73,10.0,North,9.2,-,0.01,,Mostly Cloudy,10,2014-06-10 06:58:00
2:04 AM,62.6,62.6,100,29.75,10.0,NNE,10.4,-,N/A,Rain,Light Rain,30,2014-06-10 07:04:00
2:14 AM,62.6,62.6,100,29.75,10.0,NNE,12.7,-,N/A,Rain,Light Rain,30,2014-06-10 07:14:00
2:16 AM,62.6,62.6,100,29.75,10.0,NNE,15.0,-,N/A,Rain,Light Rain,30,2014-06-10 07:16:00
2:31 AM,62.6,62.6,100,29.75,10.0,NNE,10.4,-,N/A,,Light Drizzle,30,2014-06-10 07:31:00
2:35 AM,62.6,62.6,100,29.75,10.0,NNE,8.1,-,N/A,,Overcast,20,2014-06-10 07:35:00
2:58 AM,63.3,63.3,100,29.74,10.0,NNE,12.7,-,0.00,,Overcast,20,2014-06-10 07:58:00
2:59 AM,62.6,62.6,100,29.76,10.0,NNE,13.8,-,N/A,,Light Drizzle,20,2014-06-10 07:59:00
3:09 AM,62.6,62.6,100,29.76,10.0,NNE,16.1,-,N/A,,Overcast,20,2014-06-10 08:09:00
3:13 AM,62.6,62.6,100,29.76,10.0,NNE,12.7,-,N/A,Rain,Light Rain,20,2014-06-10 08:13:00
3:26 AM,62.6,62.6,100,29.77,10.0,NNE,12.7,-,N/A,,Overcast,20,2014-06-10 08:26:00
3:33 AM,62.6,62.6,100,29.76,10.0,NNE,16.1,-,N/A,Rain,Light Rain,20,2014-06-10 08:33:00
3:42 AM,62.6,62.6,100,29.77,10.0,NNE,12.7,-,N/A,,Mostly Cloudy,30,2014-06-10 08:42:00
3:51 AM,62.6,62.6,100,29.77,10.0,NNE,15.0,-,N/A,Rain,Light Rain,30,2014-06-10 08:51:00
3:56 AM,62.6,62.6,100,29.77,10.0,NNE,16.1,-,N/A,Rain,Light Rain,20,2014-06-10 08:56:00
3:58 AM,62.6,62.6,100,29.75,10.0,NNE,15.0,-,0.00,Rain,Light Rain,20,2014-06-10 08:58:00
4:23 AM,62.6,62.6,100,29.78,10.0,NNE,13.8,-,N/A,,Mostly Cloudy,30,2014-06-10 09:23:00
4:30 AM,62.6,62.6,100,29.78,10.0,NNE,16.1,-,N/A,,Light Drizzle,30,2014-06-10 09:30:00
4:41 AM,62.6,62.6,100,29.78,10.0,NE,13.8,-,N/A,,Mostly Cloudy,40,2014-06-10 09:41:00
4:46 AM,62.6,62.6,100,29.78,10.0,NNE,18.4,-,N/A,,Mostly Cloudy,30,2014-06-10 09:46:00
4:48 AM,62.6,62.6,100,29.78,10.0,NNE,16.1,-,N/A,,Light Drizzle,30,2014-06-10 09:48:00
4:53 AM,62.6,62.6,100,29.78,10.0,NNE,17.3,-,N/A,,Light Drizzle,30,2014-06-10 09:53:00
4:58 AM,62.1,62.1,100,29.76,10.0,NNE,19.6,24.2,0.01,,Light Drizzle,30,2014-06-10 09:58:00
5:03 AM,62.6,62.6,100,29.78,10.0,NNE,15.0,24.2,N/A,,Mostly Cloudy,30,2014-06-10 10:03:00
5:23 AM,60.8,60.8,100,29.79,10.0,NNE,16.1,21.9,N/A,,Scattered Clouds,30,2014-06-10 10:23:00
5:48 AM,60.8,60.8,100,29.80,10.0,NNE,11.5,-,N/A,,Mostly Cloudy,20,2014-06-10 10:48:00
5:58 AM,61.3,61.3,100,29.80,10.0,North,12.7,-,0.00,,Mostly Cloudy,10,2014-06-10 10:58:00
6:03 AM,60.8,60.8,100,29.81,10.0,North,12.7,-,N/A,,Mostly Cloudy,10,2014-06-10 11:03:00
6:08 AM,62.6,62.6,100,29.81,10.0,North,10.4,-,N/A,,Overcast,360,2014-06-10 11:08:00
6:23 AM,62.6,62.6,100,29.81,10.0,North,11.5,-,N/A,,Mostly Cloudy,360,2014-06-10 11:23:00
6:33 AM,62.6,62.6,100,29.81,10.0,North,11.5,-,N/A,,Scattered Clouds,360,2014-06-10 11:33:00
6:38 AM,62.6,62.6,100,29.81,10.0,North,10.4,-,N/A,,Mostly Cloudy,360,2014-06-10 11:38:00
6:48 AM,62.6,62.6,100,29.82,10.0,North,15.0,18.4,N/A,,Scattered Clouds,10,2014-06-10 11:48:00
6:53 AM,62.6,62.6,100,29.82,10.0,North,11.5,-,N/A,,Mostly Cloudy,10,2014-06-10 11:53:00
6:58 AM,62.2,62.2,100,29.81,10.0,North,12.7,-,N/A,,Mostly Cloudy,10,2014-06-10 11:58:00
7:33 AM,62.6,62.6,100,29.82,10.0,North,12.7,-,N/A,,Scattered Clouds,350,2014-06-10 12:33:00
7:58 AM,63.5,63.5,100,29.81,10.0,North,15.0,-,N/A,,Clear,360,2014-06-10 12:58:00
8:58 AM,65.5,63.5,93,29.84,10.0,NNE,18.4,25.3,N/A,,Scattered Clouds,30,2014-06-10 13:58:00
9:58 AM,68.2,63.5,85,29.86,10.0,NNE,13.8,24.2,N/A,,Scattered Clouds,20,2014-06-10 14:58:00
10:58 AM,69.3,62.2,78,29.86,10.0,NNE,18.4,-,N/A,,Partly Cloudy,20,2014-06-10 15:58:00
11:58 AM,70.9,62.1,74,29.86,10.0,NNE,18.4,-,N/A,,Partly Cloudy,20,2014-06-10 16:58:00
12:13 PM,71.6,62.6,73,29.88,10.0,North,15.0,-,N/A,,Partly Cloudy,350,2014-06-10 17:13:00
12:58 PM,72.0,61.3,69,29.86,10.0,North,13.8,-,N/A,,Clear,360,2014-06-10 17:58:00
1:52 PM,73.4,59.0,61,29.87,10.0,North,13.8,21.9,N/A,,Partly Cloudy,350,2014-06-10 18:52:00
1:58 PM,73.0,59.7,63,29.86,10.0,North,13.8,-,N/A,,Partly Cloudy,360,2014-06-10 18:58:00
2:58 PM,75.9,60.1,58,29.84,10.0,North,16.1,21.9,N/A,,Partly Cloudy,10,2014-06-10 19:58:00
3:58 PM,76.1,59.9,57,29.85,10.0,North,13.8,17.3,N/A,,Clear,10,2014-06-10 20:58:00
4:58 PM,76.3,60.3,57,29.83,10.0,NNE,5.8,-,N/A,,Clear,30,2014-06-10 21:58:00
5:58 PM,76.6,58.8,54,29.82,10.0,North,10.4,-,N/A,,Partly Cloudy,10,2014-06-10 22:58:00
6:58 PM,77.2,58.6,53,29.81,10.0,NNE,10.4,-,N/A,,Clear,30,2014-06-10 23:58:00
7:58 PM,74.5,60.1,61,29.82,10.0,NNE,9.2,-,N/A,,Clear,20,2014-06-11 00:58:00
8:58 PM,70.9,61.2,71,29.82,10.0,ENE,2.3,-,N/A,,Clear,60,2014-06-11 01:58:00
9:58 PM,71.4,60.3,68,29.84,10.0,Calm,Calm,-,N/A,,Clear,0,2014-06-11 02:58:00
10:58 PM,70.5,60.6,71,29.86,10.0,East,1.2,-,N/A,,Clear,100,2014-06-11 03:58:00
11:58 PM,68.9,60.8,75,29.85,10.0,East,4.6,-,N/A,,Clear,100,2014-06-11 04:58:00